Elmore, Ohio
Current Conditions -  °F | °C
As of 1:53 AM on Friday 31 Oct 2014 (Local Time) from KTDZ Reporting Station
Overcast Overcast  
Wind Chill: 42°   Ceiling: 5000
Heat Index: 45°   Visibility: 10mi
Dew Point: 36°   Wind: 6mph
Humidity: 71%   Direction: 210°SSW
Pressure: 30.01"   Gusts: NA
Location:  41.48°N, 83.3°W
Report Text: KTDZ 310553Z AUTO 21005KT 10SM OVC050 07/02 A3001 RMK AO2 SLP164 T00720022 10089 20072 57013 TSNO
Loading
Personal Weather Stations






























Interactive Weather Map
Tropical Storm Tracking
New forecast layout! Learn more

10-Day Weather Forecast

Advertisements
Track Severe Weather on mobile